Rawlins, WY

3:12 AM MST on February 11, 2016 (GMT -0700)
Rawlins Municipal | | Change Station
CLOSE
Current Station
Airport
Location: Rawlins,
Elevation: 6814 ft
Nearby Weather Stations

Elev 6814 ft 41.81 °N, 107.20 °W | Updated 19 minutes ago

Clear
Clear
32 °F
Feels Like 22 °F
N
14
Wind Variable Wind from WSW

Today
High -- | Low -- °F
--% Chance of Precip.
Yesterday
High -- | Low -- °F
Precip. -- in
Pressure 30.25 in
Visibility 10.0 miles
Clouds Clear
Windchill 22 °F
Dew Point 17 °F
Humidity 54%
Rainfall 0.00 in
Snow Depth Not available.
7:10 AM 5:36 PM
Waxing Crescent, 11% visible
METAR KRWL 110953Z AUTO 24012KT 10SM CLR 00/M08 A3025 RMK AO2 SLP244 T00001083
Pressure 30.25 in
Visibility 10.0 miles
Clouds Clear
Windchill 22 °F
Dew Point 17 °F
Humidity 54%
Rainfall 0.00 in
Snow Depth Not available.
7:10 AM 5:36 PM
Waxing Crescent, 11% visible
METAR KRWL 110953Z AUTO 24012KT 10SM CLR 00/M08 A3025 RMK AO2 SLP244 T00001083

10-Day Weather Forecast

Almanac

Astronomy

Feb. 11, 2016 Rise Set
Actual Time
Civil Twilight
Nautical Twilight
Astronomical Twilight
Moon
Length of Visible Light
Length of Day
Tomorrow will be .
, % of the Moon is Illuminated

Today's Extremes

State Highs State Lows

Community

WunderPhotos

Upload Photos

1,892,030 photos uploaded!

WunderBlog® & News

Nearby

Air Quality

  Air Quality AQ Index Pollutant
Not available.

Snow Depth

Station Depth Elevation

Earthquake Activity

City Distance Mag. Time & Date
Minimum magnitude displayed is 2.5.

Coastal Water Temperatures

Place Temperature

Stations

Nearby Weather Stations

Station Location Temp. Windchill Dew Point Humidity Wind Precip. Elev Updated Type
                   

Watches & Warnings

There are currently no watches in effect.